Time;durP1;ratioP1;P1;durP2;ratioP2;P2;SDS_P1;SDS_P2;PMS_P1;PMS_P2;Temp;Humidity;BMP_temperature;BMP_pressure;BME280_temperature;BME280_humidity;BME280_pressure;Samples;Min_cycle;Max_cycle;Signal;HPM_P1;HPM_P2
2022/03/13 00:00:52;;;;;;;14.15;8.73;;;;;;;10.32;55.33;101417.38;5068213;28;20024;-62
2022/03/13 00:03:20;;;;;;;12.57;9.93;;;;;;;10.29;55.60;101409.63;5071090;28;20107;-62
2022/03/13 00:05:48;;;;;;;13.15;8.50;;;;;;;10.29;55.60;101414.06;5092502;28;20023;-62
2022/03/13 00:08:29;;;;;;;11.85;9.07;;;;;;;10.30;55.43;101421.94;5066281;28;20032;-63
2022/03/13 00:10:58;;;;;;;13.32;8.90;;;;;;;10.28;55.63;101418.53;5092578;28;20074;-62
2022/03/13 00:13:24;;;;;;;11.47;8.47;;;;;;;10.28;55.80;101420.34;5092599;28;20432;-62
2022/03/13 00:15:51;;;;;;;9.82;8.00;;;;;;;10.27;55.79;101410.66;5092290;28;20372;-62
2022/03/13 00:18:17;;;;;;;11.32;8.30;;;;;;;10.25;56.02;101417.88;5076279;28;20574;-62
2022/03/13 00:20:42;;;;;;;12.05;8.45;;;;;;;10.25;56.24;101413.41;5088971;28;20111;-62
2022/03/13 00:23:09;;;;;;;12.57;8.38;;;;;;;10.24;56.34;101414.38;5081646;28;20024;-63
2022/03/13 00:25:34;;;;;;;12.18;8.57;;;;;;;10.23;56.36;101410.03;5091972;28;20402;-62
2022/03/13 00:27:59;;;;;;;12.13;8.60;;;;;;;10.21;56.49;101409.28;5092054;28;20287;-62
2022/03/13 00:30:25;;;;;;;12.15;8.60;;;;;;;10.22;56.61;101400.34;5078954;28;20028;-63
2022/03/13 00:32:51;;;;;;;12.27;8.57;;;;;;;10.22;56.39;101396.84;5092092;28;20501;-63
2022/03/13 00:35:16;;;;;;;12.15;8.60;;;;;;;10.19;56.54;101396.09;5089162;28;20872;-62
2022/03/13 00:37:42;;;;;;;13.10;8.50;;;;;;;10.22;56.45;101380.91;5069466;28;20399;-62
2022/03/13 00:40:08;;;;;;;13.48;9.00;;;;;;;10.20;56.61;101381.00;5091939;28;20039;-62
2022/03/13 00:42:34;;;;;;;10.18;8.02;;;;;;;10.18;56.50;101386.41;5079095;28;20059;-62
2022/03/13 00:44:59;;;;;;;9.45;8.25;;;;;;;10.20;56.59;101383.66;5091890;28;20029;-63
2022/03/13 00:47:24;;;;;;;13.07;9.25;;;;;;;10.18;56.33;101390.88;5077339;28;20024;-62
2022/03/13 00:49:50;;;;;;;11.52;8.50;;;;;;;10.16;56.43;101385.69;5081496;28;20115;-63
2022/03/13 00:52:17;;;;;;;10.70;8.05;;;;;;;10.16;56.69;101392.81;5085856;28;20494;-63
2022/03/13 00:54:42;;;;;;;12.82;8.30;;;;;;;10.14;56.59;101390.25;5077371;28;20035;-63
2022/03/13 00:57:08;;;;;;;12.25;8.43;;;;;;;10.11;56.56;101381.63;5075966;28;20391;-62
2022/03/13 00:59:34;;;;;;;10.82;8.23;;;;;;;10.10;56.60;101379.94;5082189;28;20537;-63
2022/03/13 01:01:59;;;;;;;11.77;8.65;;;;;;;10.08;56.54;101371.22;5080259;28;20028;-63
2022/03/13 01:04:25;;;;;;;10.65;8.63;;;;;;;10.05;56.67;101372.25;5091288;28;20458;-63
2022/03/13 01:06:51;;;;;;;13.52;8.52;;;;;;;10.04;56.70;101367.06;5082496;28;20028;-62
2022/03/13 01:09:17;;;;;;;11.85;8.65;;;;;;;10.03;56.84;101365.38;5082570;28;20470;-62
2022/03/13 01:11:42;;;;;;;9.60;8.05;;;;;;;10.01;56.88;101360.16;5091372;28;20024;-63
2022/03/13 01:14:08;;;;;;;10.70;8.07;;;;;;;10.00;57.17;101361.94;5091304;28;20069;-61
2022/03/13 01:16:35;;;;;;;10.63;8.43;;;;;;;9.98;57.38;101357.72;5062741;28;20025;-63
2022/03/13 01:19:00;;;;;;;9.60;7.63;;;;;;;9.97;57.15;101358.66;5069599;28;20052;-61
2022/03/13 01:21:27;;;;;;;11.88;8.27;;;;;;;9.95;57.54;101349.94;5081276;28;20709;-62
2022/03/13 01:24:01;;;;;;;10.80;8.55;;;;;;;9.92;57.41;101344.84;5091069;28;20070;-62
2022/03/13 01:26:27;;;;;;;10.57;8.23;;;;;;;9.89;57.61;101342.38;5090463;28;20498;-62
2022/03/13 01:28:56;;;;;;;11.65;8.00;;;;;;;9.82;57.92;101337.50;5067558;28;20028;-62
2022/03/13 01:31:27;;;;;;;10.47;8.57;;;;;;;9.82;57.94;101344.56;5090196;28;20450;-63
2022/03/13 01:33:53;;;;;;;11.15;8.32;;;;;;;9.79;58.21;101344.78;5089458;28;20111;-62
2022/03/13 01:36:18;;;;;;;9.98;8.00;;;;;;;9.76;58.38;101342.34;5072338;28;20031;-62
2022/03/13 01:38:44;;;;;;;10.43;8.63;;;;;;;9.71;58.46;101329.38;5087849;28;20028;-61
2022/03/13 01:41:09;;;;;;;13.35;8.95;;;;;;;9.68;58.60;101331.38;5084769;28;20038;-62
2022/03/13 01:43:35;;;;;;;13.18;8.00;;;;;;;9.65;58.69;101332.41;5090468;28;20055;-61
2022/03/13 01:46:02;;;;;;;9.80;8.00;;;;;;;9.62;58.85;101332.63;5090720;28;20032;-62
2022/03/13 01:48:29;;;;;;;10.05;7.90;;;;;;;9.59;59.00;101323.06;5085352;28;20118;-63
2022/03/13 01:50:55;;;;;;;8.93;7.47;;;;;;;9.56;58.98;101325.03;5090464;28;20024;-63
2022/03/13 01:53:21;;;;;;;9.77;7.53;;;;;;;9.53;59.11;101315.50;5082874;28;20029;-63
2022/03/13 01:55:48;;;;;;;9.20;7.68;;;;;;;9.49;59.18;101313.16;5080809;28;20426;-62
2022/03/13 01:58:14;;;;;;;9.20;7.50;;;;;;;9.46;59.23;101311.56;5090414;28;20474;-62
2022/03/13 02:00:39;;;;;;;9.52;7.00;;;;;;;9.42;59.73;101302.94;5075506;28;20341;-62
2022/03/13 02:03:04;;;;;;;10.77;7.90;;;;;;;9.40;59.66;101307.47;5073926;28;20025;-62
2022/03/13 02:05:39;;;;;;;9.63;7.25;;;;;;;9.37;59.71;101318.28;5068325;28;20032;-61
2022/03/13 02:08:12;;;;;;;10.07;7.38;;;;;;;9.34;60.04;101315.84;5073807;28;20375;-62
2022/03/13 02:10:37;;;;;;;9.88;7.20;;;;;;;9.30;60.12;101306.38;5075902;28;20035;-62
2022/03/13 02:13:02;;;;;;;9.90;7.72;;;;;;;9.29;60.31;101307.31;5078983;28;20404;-62
2022/03/13 02:15:31;;;;;;;10.55;7.55;;;;;;;9.25;60.46;101309.31;5083344;28;20157;-63
2022/03/13 02:17:59;;;;;;;9.25;7.50;;;;;;;9.24;60.71;101306.75;5090350;28;20035;-63
2022/03/13 02:20:27;;;;;;;11.35;7.25;;;;;;;9.22;60.74;101304.19;5088565;28;20032;-63
2022/03/13 02:22:58;;;;;;;12.95;7.72;;;;;;;9.21;60.75;101310.47;5071018;28;20103;-63
2022/03/13 02:25:24;;;;;;;9.85;7.20;;;;;;;9.19;60.92;101312.38;5079517;28;20103;-63
2022/03/13 02:27:50;;;;;;;8.65;7.22;;;;;;;9.17;61.17;101313.41;5090635;28;20103;-62
2022/03/13 02:30:15;;;;;;;8.85;7.65;;;;;;;9.15;61.09;101320.59;5090231;28;20028;-62
2022/03/13 02:32:40;;;;;;;8.48;7.57;;;;;;;9.14;61.25;101316.25;5085816;28;20470;-62
2022/03/13 02:35:06;;;;;;;10.18;8.00;;;;;;;9.12;61.12;101315.50;5060661;28;20025;-63
2022/03/13 02:37:38;;;;;;;13.13;8.70;;;;;;;9.11;61.36;101316.44;5082667;28;20021;-62
2022/03/13 02:40:04;;;;;;;12.70;8.90;;;;;;;9.08;61.33;101312.19;5078899;28;20028;-63
2022/03/13 02:42:29;;;;;;;13.63;9.02;;;;;;;9.07;61.52;101310.47;5090345;28;20470;-63
2022/03/13 02:44:55;;;;;;;12.95;9.13;;;;;;;9.06;61.28;101307.00;5094671;28;20138;-63
2022/03/13 02:47:20;;;;;;;10.63;8.57;;;;;;;9.05;61.55;101307.09;5093908;28;20028;-62
2022/03/13 02:49:45;;;;;;;12.40;9.45;;;;;;;9.05;61.70;101310.56;5093956;28;20434;-63
2022/03/13 02:52:11;;;;;;;11.07;8.75;;;;;;;9.05;62.17;101302.63;5075603;28;20040;-62
2022/03/13 02:54:36;;;;;;;23.33;10.03;;;;;;;9.02;62.32;101297.50;5076875;28;20036;-61
2022/03/13 02:57:02;;;;;;;11.63;9.32;;;;;;;9.03;62.67;101295.75;5067636;28;20340;-62
2022/03/13 02:59:28;;;;;;;12.52;9.63;;;;;;;9.03;63.21;101298.38;5066391;28;20020;-62
2022/03/13 03:01:54;;;;;;;14.73;10.38;;;;;;;9.01;63.35;101293.19;5078490;28;20477;-62
2022/03/13 03:04:22;;;;;;;15.10;10.63;;;;;;;9.01;63.56;101290.53;5082127;28;20040;-61
2022/03/13 03:07:00;;;;;;;13.80;10.43;;;;;;;9.00;63.24;101291.47;5088671;28;20035;-62
2022/03/13 03:09:28;;;;;;;13.80;10.95;;;;;;;8.96;64.07;101289.97;5093710;28;20082;-63
2022/03/13 03:11:56;;;;;;;14.25;10.60;;;;;;;8.96;64.25;101284.69;5089382;28;20103;-63
2022/03/13 03:14:21;;;;;;;13.20;10.65;;;;;;;8.97;64.25;101288.16;5082509;28;20484;-62
2022/03/13 03:16:46;;;;;;;13.75;11.18;;;;;;;8.96;65.24;101278.50;5093626;28;20067;-63
2022/03/13 03:19:12;;;;;;;13.73;11.10;;;;;;;8.94;65.19;101280.41;5080842;28;20029;-63
2022/03/13 03:21:39;;;;;;;15.00;11.10;;;;;;;8.92;65.41;101277.00;5081651;28;20028;-64
2022/03/13 03:24:16;;;;;;;16.20;11.50;;;;;;;8.91;65.02;101280.59;5093490;28;20047;-63
2022/03/13 03:26:42;;;;;;;15.50;11.45;;;;;;;8.88;65.21;101287.78;5067135;22;20084;-63
2022/03/13 03:29:07;;;;;;;14.88;11.13;;;;;;;8.87;65.62;101285.22;5013089;28;20405;-63
2022/03/13 03:31:33;;;;;;;18.20;11.68;;;;;;;8.85;65.88;101281.84;5013910;28;20030;-63
2022/03/13 03:33:58;;;;;;;16.27;12.00;;;;;;;8.83;65.94;101273.97;5014075;28;20483;-63
2022/03/13 03:36:23;;;;;;;17.42;12.60;;;;;;;8.83;66.18;101275.78;5004646;28;20487;-63
2022/03/13 03:38:48;;;;;;;15.63;12.52;;;;;;;8.81;66.10;101273.25;5013419;28;20049;-64
2022/03/13 03:41:14;;;;;;;17.17;12.48;;;;;;;8.80;66.54;101268.88;5010672;28;20115;-63
2022/03/13 03:43:39;;;;;;;16.05;12.35;;;;;;;8.81;66.54;101285.59;5005973;28;20064;-63
2022/03/13 03:46:04;;;;;;;17.30;12.23;;;;;;;8.78;66.87;101278.72;5013419;28;20684;-63
2022/03/13 03:48:31;;;;;;;16.27;12.93;;;;;;;8.78;66.90;101276.06;5013232;28;20281;-63
2022/03/13 03:50:56;;;;;;;19.27;12.45;;;;;;;8.78;67.00;101278.72;5009459;28;20022;-63
2022/03/13 03:53:21;;;;;;;17.73;12.77;;;;;;;8.78;67.17;101267.28;5012384;28;20037;-63
2022/03/13 03:55:46;;;;;;;17.55;13.98;;;;;;;8.76;67.56;101271.81;5013501;28;20033;-63
2022/03/13 03:58:12;;;;;;;17.23;13.98;;;;;;;8.74;67.63;101271.91;5002306;28;20400;-63
2022/03/13 04:00:38;;;;;;;18.05;13.80;;;;;;;8.69;67.74;101269.56;5013572;28;20018;-63
2022/03/13 04:03:03;;;;;;;18.90;13.50;;;;;;;8.70;67.04;101273.03;5011722;28;20395;-63
2022/03/13 04:05:28;;;;;;;19.52;13.82;;;;;;;8.68;67.56;101270.50;5013151;28;20392;-63
2022/03/13 04:07:54;;;;;;;19.73;14.15;;;;;;;8.66;67.38;101267.09;5000309;28;20567;-63
2022/03/13 04:10:19;;;;;;;18.98;14.00;;;;;;;8.65;67.92;101268.03;5011546;28;20040;-63
2022/03/13 04:12:44;;;;;;;21.92;14.23;;;;;;;8.63;67.40;101261.97;5005858;28;20037;-63
2022/03/13 04:15:10;;;;;;;21.73;14.85;;;;;;;8.61;67.79;101263.00;5012923;28;20026;-63
2022/03/13 04:17:35;;;;;;;17.25;14.20;;;;;;;8.59;67.72;101265.75;5008420;28;20022;-63
2022/03/13 04:20:00;;;;;;;19.30;14.82;;;;;;;8.59;67.86;101264.91;5009625;28;20105;-63
2022/03/13 04:22:27;;;;;;;21.10;15.57;;;;;;;8.59;67.48;101267.56;5009449;28;20065;-63
2022/03/13 04:24:52;;;;;;;19.92;15.52;;;;;;;8.56;67.95;101271.25;4993808;28;20369;-63
2022/03/13 04:27:17;;;;;;;22.50;16.50;;;;;;;8.55;67.84;101266.91;4993502;28;20061;-63
2022/03/13 04:29:42;;;;;;;20.05;15.90;;;;;;;8.52;68.27;101262.63;4993179;28;20232;-64
2022/03/13 04:32:08;;;;;;;21.37;17.37;;;;;;;8.50;68.21;101261.03;5008016;28;20034;-64
2022/03/13 04:34:35;;;;;;;22.20;17.63;;;;;;;8.50;68.53;101261.03;5003320;28;20296;-64
2022/03/13 04:37:01;;;;;;;26.00;17.63;;;;;;;8.47;68.64;101261.22;5012385;28;20026;-64
2022/03/13 04:39:35;;;;;;;23.60;17.58;;;;;;;8.43;68.63;101265.84;5012252;28;20071;-65
2022/03/13 04:42:07;;;;;;;24.88;18.38;;;;;;;8.40;69.35;101255.41;5012503;28;20033;-66
2022/03/13 04:44:33;;;;;;;22.30;18.05;;;;;;;8.37;68.80;101254.75;5001408;28;20082;-66
2022/03/13 04:46:59;;;;;;;22.35;17.48;;;;;;;8.34;70.00;101255.78;5012149;28;20480;-66
2022/03/13 04:49:24;;;;;;;21.92;18.27;;;;;;;8.35;68.18;101262.78;5010140;28;20072;-66
2022/03/13 04:51:49;;;;;;;25.80;18.50;;;;;;;8.32;68.74;101260.31;5003801;28;20465;-66
2022/03/13 04:54:16;;;;;;;21.92;17.92;;;;;;;8.29;69.36;101258.72;5012272;28;20026;-66
2022/03/13 04:56:41;;;;;;;24.15;18.80;;;;;;;8.29;69.54;101260.50;5011960;28;20476;-66
2022/03/13 04:59:07;;;;;;;24.42;18.38;;;;;;;8.26;68.83;101260.69;5000403;28;20030;-66
2022/03/13 05:01:32;;;;;;;22.98;18.63;;;;;;;8.23;69.34;101261.72;4998378;28;20328;-66
2022/03/13 05:03:58;;;;;;;23.23;18.25;;;;;;;8.21;69.38;101260.09;5011710;28;20113;-66
2022/03/13 05:06:23;;;;;;;22.85;18.55;;;;;;;8.16;69.76;101255.13;5008447;28;20079;-66
2022/03/13 05:08:49;;;;;;;25.73;19.63;;;;;;;8.14;69.17;101252.56;5031176;28;20101;-65
2022/03/13 05:11:15;;;;;;;26.05;18.63;;;;;;;8.09;68.79;101251.13;5025797;28;20029;-65
2022/03/13 05:13:40;;;;;;;30.10;19.67;;;;;;;8.05;69.28;101249.59;5008385;28;20034;-66
2022/03/13 05:16:06;;;;;;;23.85;18.10;;;;;;;8.03;68.82;101252.34;5024906;28;20047;-66
2022/03/13 05:18:32;;;;;;;23.15;19.90;;;;;;;8.02;68.30;101253.28;4998757;28;20049;-65
2022/03/13 05:20:57;;;;;;;24.23;17.52;;;;;;;8.00;68.32;101256.97;5011460;28;20022;-65
2022/03/13 05:23:22;;;;;;;22.08;17.63;;;;;;;7.99;67.99;101257.91;5016160;28;20040;-65
2022/03/13 05:25:48;;;;;;;23.83;17.85;;;;;;;7.95;67.95;101250.13;5012955;28;20052;-65
2022/03/13 05:28:13;;;;;;;23.38;18.33;;;;;;;7.94;67.92;101244.94;5011404;28;20029;-65
2022/03/13 05:30:39;;;;;;;25.58;17.95;;;;;;;7.94;67.39;101258.16;5011235;28;20061;-65
2022/03/13 05:33:06;;;;;;;22.83;18.65;;;;;;;7.92;67.70;101249.47;5000970;28;20030;-65
2022/03/13 05:35:31;;;;;;;25.55;18.77;;;;;;;7.91;67.67;101256.56;5010385;28;20057;-65
2022/03/13 05:37:57;;;;;;;25.52;17.48;;;;;;;7.90;67.56;101256.66;5004154;28;20069;-65
2022/03/13 05:40:23;;;;;;;24.52;17.98;;;;;;;7.88;67.42;101248.81;5015268;28;20026;-65
2022/03/13 05:42:54;;;;;;;24.10;18.45;;;;;;;7.88;67.53;101254.09;5011103;28;20029;-66
2022/03/13 05:45:20;;;;;;;23.95;18.05;;;;;;;7.86;67.64;101249.81;5011195;28;20396;-65
2022/03/13 05:47:50;;;;;;;21.35;16.80;;;;;;;7.85;67.34;101254.28;5011457;28;20028;-66
2022/03/13 05:50:17;;;;;;;24.63;17.38;;;;;;;7.84;66.90;101268.44;5011445;28;20424;-65
2022/03/13 05:52:43;;;;;;;23.63;17.17;;;;;;;7.83;67.30;101261.44;5003499;28;20084;-66
2022/03/13 05:55:09;;;;;;;24.42;17.42;;;;;;;7.84;67.04;101257.00;5011131;28;20022;-65
2022/03/13 05:57:35;;;;;;;23.55;17.13;;;;;;;7.83;66.56;101266.75;5008107;28;20044;-65
2022/03/13 06:00:01;;;;;;;20.80;16.35;;;;;;;7.82;66.46;101265.03;5010876;28;20110;-65
2022/03/13 06:02:28;;;;;;;22.73;16.20;;;;;;;7.81;66.80;101258.06;5010765;28;20108;-65
2022/03/13 06:04:53;;;;;;;23.15;16.60;;;;;;;7.80;66.88;101264.28;5010557;28;20033;-65
2022/03/13 06:07:19;;;;;;;25.92;16.98;;;;;;;7.79;66.55;101262.56;5007663;28;20117;-65
2022/03/13 06:09:44;;;;;;;23.35;17.08;;;;;;;7.80;66.79;101271.34;5010714;28;20030;-65
2022/03/13 06:12:10;;;;;;;22.38;16.75;;;;;;;7.78;66.54;101268.81;5011053;28;20030;-65
2022/03/13 06:14:35;;;;;;;20.75;16.10;;;;;;;7.78;66.38;101271.44;5012269;28;20032;-65
2022/03/13 06:17:00;;;;;;;22.33;15.63;;;;;;;7.78;66.08;101268.81;5001526;28;20030;-65
2022/03/13 06:19:26;;;;;;;23.33;15.88;;;;;;;7.76;66.60;101268.00;5009184;28;20387;-65
2022/03/13 06:21:51;;;;;;;22.73;17.20;;;;;;;7.76;66.00;101273.31;4999969;28;20072;-65
2022/03/13 06:24:18;;;;;;;23.35;16.52;;;;;;;7.76;65.73;101275.94;5004576;28;20354;-65
2022/03/13 06:26:44;;;;;;;22.17;16.30;;;;;;;7.76;65.37;101265.38;5010363;28;20092;-65
2022/03/13 06:29:09;;;;;;;19.98;16.60;;;;;;;7.76;65.65;101265.38;5010449;28;20053;-65
2022/03/13 06:31:34;;;;;;;22.98;16.70;;;;;;;7.77;64.96;101269.72;5010434;28;20376;-65
2022/03/13 06:34:00;;;;;;;23.00;16.48;;;;;;;7.75;65.12;101271.63;5005685;28;20037;-65
2022/03/13 06:36:25;;;;;;;21.80;16.58;;;;;;;7.75;65.59;101263.69;5005677;28;20049;-65
2022/03/13 06:38:50;;;;;;;20.88;16.13;;;;;;;7.73;65.21;101277.00;5008555;28;20022;-65
2022/03/13 06:41:18;;;;;;;20.15;16.00;;;;;;;7.73;65.73;101270.88;5004773;28;20026;-65
2022/03/13 06:43:44;;;;;;;20.25;15.63;;;;;;;7.73;65.54;101276.16;5010352;28;20022;-64
2022/03/13 06:46:09;;;;;;;21.40;15.95;;;;;;;7.73;65.63;101266.41;5010492;28;20049;-65
2022/03/13 06:48:35;;;;;;;22.60;15.75;;;;;;;7.74;64.81;101261.97;5007684;28;20435;-65
2022/03/13 06:51:00;;;;;;;20.40;15.43;;;;;;;7.75;64.47;101259.25;5008984;28;20022;-64
2022/03/13 06:53:25;;;;;;;20.23;15.88;;;;;;;7.76;64.89;101268.00;5004528;28;20033;-64
2022/03/13 06:55:51;;;;;;;19.75;15.63;;;;;;;7.77;64.78;101261.78;5010442;28;20380;-64
2022/03/13 06:58:17;;;;;;;24.50;15.98;;;;;;;7.78;64.38;101269.66;5007223;28;20066;-65
2022/03/13 07:00:44;;;;;;;20.75;15.85;;;;;;;7.80;64.60;101272.19;5006195;28;20072;-64
2022/03/13 07:03:10;;;;;;;22.67;16.83;;;;;;;7.82;64.70;101269.47;5002558;28;20026;-64
2022/03/13 07:05:35;;;;;;;23.70;15.82;;;;;;;7.83;64.31;101277.31;5010241;28;20026;-64
2022/03/13 07:08:01;;;;;;;20.42;15.57;;;;;;;7.85;64.37;101266.66;5010355;28;20030;-64
2022/03/13 07:10:26;;;;;;;22.13;15.65;;;;;;;7.87;63.60;101264.75;5003093;28;20045;-64
2022/03/13 07:12:52;;;;;;;19.88;15.25;;;;;;;7.90;63.82;101262.78;5008919;28;20483;-65
2022/03/13 07:15:18;;;;;;;20.17;16.20;;;;;;;7.91;63.41;101267.16;5016944;28;20029;-64
2022/03/13 07:17:45;;;;;;;22.88;15.95;;;;;;;7.93;63.43;101270.53;5012960;28;20076;-65
2022/03/13 07:20:11;;;;;;;22.23;16.10;;;;;;;7.95;63.74;101266.00;5010168;28;20085;-65
2022/03/13 07:22:37;;;;;;;20.25;15.73;;;;;;;7.95;64.44;101273.09;5009141;28;20792;-64
2022/03/13 07:25:03;;;;;;;19.95;14.85;;;;;;;7.95;64.17;101266.00;4997284;28;20365;-65
2022/03/13 07:27:29;;;;;;;21.42;15.82;;;;;;;7.98;63.46;101257.06;5009837;28;20046;-64
2022/03/13 07:29:54;;;;;;;24.88;15.90;;;;;;;8.00;64.01;101259.63;5011671;28;20032;-64
2022/03/13 07:32:20;;;;;;;21.90;15.43;;;;;;;8.02;64.26;101265.66;5006989;28;20026;-64
2022/03/13 07:34:45;;;;;;;20.55;15.70;;;;;;;8.03;63.79;101260.28;5010327;28;21236;-64
2022/03/13 07:37:10;;;;;;;20.10;15.70;;;;;;;8.06;63.23;101261.88;5013692;28;20427;-64
2022/03/13 07:39:39;;;;;;;18.48;15.07;;;;;;;8.09;62.76;101264.34;5013167;28;20026;-64
2022/03/13 07:42:05;;;;;;;21.95;16.95;;;;;;;8.13;62.73;101255.28;4995937;28;20037;-64
2022/03/13 07:44:30;;;;;;;23.08;15.90;;;;;;;8.14;62.28;101256.97;5013210;28;20080;-64
2022/03/13 07:46:55;;;;;;;19.83;15.50;;;;;;;8.18;62.16;101255.00;5008794;28;20092;-65
2022/03/13 07:49:20;;;;;;;19.95;15.35;;;;;;;8.21;63.09;101255.69;5013149;28;20033;-64
2022/03/13 07:51:47;;;;;;;21.48;15.65;;;;;;;8.25;62.77;101254.53;5013131;28;20030;-64
2022/03/13 07:54:13;;;;;;;21.48;15.38;;;;;;;8.29;62.76;101255.22;5013180;28;20384;-64
2022/03/13 07:56:38;;;;;;;21.38;15.40;;;;;;;8.33;61.92;101260.22;5010131;28;20506;-64
2022/03/13 07:59:04;;;;;;;21.05;15.65;;;;;;;8.37;61.96;101257.41;5012884;28;20076;-64
2022/03/13 08:01:29;;;;;;;22.90;15.80;;;;;;;8.42;62.78;101250.03;5011236;28;20112;-64
2022/03/13 08:03:54;;;;;;;21.90;15.75;;;;;;;8.47;61.88;101251.47;5009427;28;20435;-64
2022/03/13 08:06:19;;;;;;;21.67;16.58;;;;;;;8.51;61.49;101255.66;5013051;28;20026;-64
2022/03/13 08:08:45;;;;;;;21.65;15.93;;;;;;;8.57;61.77;101262.34;5012787;28;20495;-64
2022/03/13 08:11:10;;;;;;;20.05;15.52;;;;;;;8.63;61.50;101255.84;5012295;28;20095;-64
2022/03/13 08:13:35;;;;;;;20.55;15.82;;;;;;;8.69;61.15;101256.31;5012699;28;20045;-64
2022/03/13 08:16:01;;;;;;;21.42;15.95;;;;;;;8.77;61.52;101254.97;5026249;28;20383;-63
2022/03/13 08:18:28;;;;;;;23.65;16.38;;;;;;;8.83;60.18;101244.00;5014028;28;20030;-64
2022/03/13 08:20:53;;;;;;;19.95;15.55;;;;;;;8.87;60.34;101253.44;5011245;28;20113;-64
2022/03/13 08:23:18;;;;;;;22.77;16.27;;;;;;;8.93;60.41;101253.06;5014457;28;20120;-64
2022/03/13 08:25:43;;;;;;;23.83;16.55;;;;;;;8.95;60.21;101248.53;5014354;28;20096;-63
2022/03/13 08:28:09;;;;;;;21.17;15.82;;;;;;;8.99;59.95;101247.38;5014310;28;20125;-63
2022/03/13 08:30:35;;;;;;;23.20;17.20;;;;;;;9.05;60.85;101254.94;5006390;28;20037;-63
2022/03/13 08:33:00;;;;;;;20.63;15.75;;;;;;;9.16;59.88;101253.38;5014236;28;20034;-64
2022/03/13 08:35:25;;;;;;;20.77;16.00;;;;;;;9.29;60.20;101245.50;5014218;28;20029;-63
2022/03/13 08:37:52;;;;;;;21.35;16.30;;;;;;;9.37;59.46;101241.41;5012470;28;20105;-63
2022/03/13 08:40:18;;;;;;;20.30;15.57;;;;;;;9.46;59.47;101250.56;5013837;28;20087;-63
2022/03/13 08:42:43;;;;;;;21.25;16.10;;;;;;;9.61;59.00;101254.03;5014113;28;20480;-63
2022/03/13 08:45:11;;;;;;;22.65;16.17;;;;;;;9.76;58.71;101255.66;5013877;28;20045;-63
2022/03/13 08:47:36;;;;;;;22.50;16.63;;;;;;;9.96;57.78;101249.00;5018425;28;20112;-63
2022/03/13 08:50:02;;;;;;;26.35;16.75;;;;;;;10.13;57.61;101250.50;5013853;28;20489;-64
2022/03/13 08:52:27;;;;;;;20.33;15.23;;;;;;;10.38;57.42;101240.91;5009925;28;20030;-63
2022/03/13 08:54:52;;;;;;;21.95;16.00;;;;;;;10.61;56.34;101244.59;5013991;28;20229;-63
2022/03/13 08:57:18;;;;;;;20.80;16.15;;;;;;;10.88;56.43;101235.63;5013888;28;20044;-63
2022/03/13 08:59:43;;;;;;;20.50;15.77;;;;;;;11.15;56.75;101231.94;5011545;28;20507;-63
2022/03/13 09:02:09;;;;;;;20.65;15.70;;;;;;;11.39;54.75;101235.47;5013763;28;20049;-63
2022/03/13 09:04:35;;;;;;;18.73;15.98;;;;;;;11.62;53.78;101235.53;5012989;28;20063;-63
2022/03/13 09:07:01;;;;;;;21.73;15.95;;;;;;;11.83;53.28;101231.25;5008014;28;20470;-63
2022/03/13 09:09:27;;;;;;;23.23;15.93;;;;;;;12.06;52.42;101231.38;5013860;28;20026;-63
2022/03/13 09:11:53;;;;;;;20.42;15.57;;;;;;;12.34;52.28;101226.56;5014129;28;20029;-63
2022/03/13 09:14:18;;;;;;;23.42;15.55;;;;;;;12.60;51.03;101227.19;5013782;28;20133;-63
2022/03/13 09:16:44;;;;;;;20.92;15.52;;;;;;;12.74;50.73;101220.78;5025007;28;20026;-62
2022/03/13 09:19:10;;;;;;;24.40;16.13;;;;;;;12.95;50.54;101219.03;5013235;28;20424;-62
2022/03/13 09:21:38;;;;;;;20.02;15.48;;;;;;;13.16;49.81;101218.28;5000355;28;20060;-62
2022/03/13 09:24:06;;;;;;;23.38;15.80;;;;;;;13.38;49.29;101213.88;5006996;28;20060;-62
2022/03/13 09:26:34;;;;;;;19.02;14.98;;;;;;;13.55;48.68;101213.31;5012291;28;20522;-62
2022/03/13 09:29:00;;;;;;;18.92;14.45;;;;;;;13.76;48.25;101213.34;5011469;28;20042;-62
2022/03/13 09:31:25;;;;;;;22.23;14.93;;;;;;;14.00;48.35;101207.72;5013136;28;20029;-62
2022/03/13 09:33:51;;;;;;;19.00;14.82;;;;;;;14.18;47.62;101215.16;5009243;28;20069;-62
2022/03/13 09:36:16;;;;;;;19.02;14.23;;;;;;;14.29;47.00;101214.22;5013272;28;20391;-63
2022/03/13 09:38:41;;;;;;;22.23;13.40;;;;;;;14.35;46.63;101211.00;5013146;28;20072;-63
2022/03/13 09:41:06;;;;;;;19.05;13.77;;;;;;;14.47;46.29;101212.63;5006316;28;20297;-63
2022/03/13 09:43:32;;;;;;;22.53;13.77;;;;;;;14.61;45.96;101203.44;5011887;28;20026;-63
2022/03/13 09:45:57;;;;;;;17.43;13.43;;;;;;;14.75;45.49;101215.56;5013032;28;20280;-63
2022/03/13 09:48:22;;;;;;;18.00;13.05;;;;;;;14.90;45.50;101211.53;5012178;28;20694;-63
2022/03/13 09:50:48;;;;;;;16.67;13.43;;;;;;;15.00;45.00;101206.19;5012529;28;20026;-63
2022/03/13 09:53:13;;;;;;;16.50;13.07;;;;;;;15.13;45.48;101205.97;5012872;28;20030;-63
2022/03/13 09:55:39;;;;;;;16.10;13.07;;;;;;;15.29;44.65;101202.75;5008200;28;20066;-62
2022/03/13 09:58:10;;;;;;;17.83;12.80;;;;;;;15.37;44.26;101208.25;5012872;28;20392;-63
2022/03/13 10:00:36;;;;;;;18.98;13.15;;;;;;;15.41;43.77;101208.81;5012893;28;20460;-63
2022/03/13 10:03:05;;;;;;;18.48;12.50;;;;;;;15.50;43.72;101205.28;5006525;28;20026;-61
2022/03/13 10:05:40;;;;;;;15.63;12.60;;;;;;;15.72;44.45;101205.00;5006540;28;20030;-61
2022/03/13 10:08:06;;;;;;;14.70;12.48;;;;;;;15.91;43.47;101193.44;5012655;28;20037;-61
2022/03/13 10:10:41;;;;;;;16.80;13.15;;;;;;;16.02;43.53;101196.94;5011985;28;20033;-61
2022/03/13 10:13:06;;;;;;;15.93;12.48;;;;;;;16.20;42.43;101199.72;5011760;28;20032;-61
2022/03/13 10:15:47;;;;;;;14.30;11.63;;;;;;;16.23;43.11;101194.06;5013151;28;20038;-62
2022/03/13 10:18:17;;;;;;;16.65;13.00;;;;;;;16.30;41.88;101192.47;4999060;28;20029;-62
2022/03/13 10:20:44;;;;;;;15.25;12.00;;;;;;;16.35;41.44;101189.34;5004076;28;20033;-62
2022/03/13 10:23:11;;;;;;;14.63;11.68;;;;;;;16.45;41.61;101182.13;5011987;28;20104;-62
2022/03/13 10:25:39;;;;;;;14.52;11.85;;;;;;;16.69;41.47;101178.06;5011442;28;20057;-62
2022/03/13 10:28:12;;;;;;;14.23;11.38;;;;;;;16.85;40.98;101182.81;5007000;28;20053;-62
2022/03/13 10:30:37;;;;;;;14.70;11.80;;;;;;;16.89;40.00;101174.31;5011122;28;20036;-60
2022/03/13 10:33:02;;;;;;;14.45;11.35;;;;;;;16.94;40.37;101169.34;5012170;28;20026;-62
2022/03/13 10:35:28;;;;;;;12.88;10.75;;;;;;;16.93;39.88;101158.75;5012367;28;20049;-62
2022/03/13 10:37:55;;;;;;;13.32;10.65;;;;;;;17.02;40.38;101171.28;5009931;28;20038;-62
2022/03/13 10:40:22;;;;;;;13.55;10.43;;;;;;;17.14;39.56;101172.72;5012414;28;20026;-62
2022/03/13 10:42:49;;;;;;;15.23;10.73;;;;;;;17.11;39.46;101170.34;5011753;28;20436;-63
2022/03/13 10:45:47;;;;;;;13.25;10.05;;;;;;;17.08;40.73;101165.28;5009695;28;20025;-62
2022/03/13 10:48:16;;;;;;;13.48;10.90;;;;;;;17.04;39.46;101171.94;5012409;28;20387;-62
2022/03/13 10:50:44;;;;;;;13.82;11.05;;;;;;;17.23;39.75;101167.44;5012586;28;20562;-62
2022/03/13 10:53:12;;;;;;;15.90;10.75;;;;;;;17.29;38.62;101161.47;5004180;28;20161;-62
2022/03/13 10:55:38;;;;;;;12.82;10.07;;;;;;;17.33;38.94;101163.66;5010857;28;20034;-62
2022/03/13 10:58:03;;;;;;;13.55;10.32;;;;;;;17.32;39.42;101158.44;5012238;28;20145;-62
2022/03/13 11:00:29;;;;;;;14.23;9.70;;;;;;;17.30;38.74;101163.13;5010613;28;20035;-62
2022/03/13 11:03:13;;;;;;;16.90;10.10;;;;;;;17.24;40.09;101161.09;5012399;28;20033;-62
2022/03/13 11:05:39;;;;;;;11.52;9.95;;;;;;;17.16;38.99;101160.00;5016048;28;20022;-62
2022/03/13 11:08:04;;;;;;;11.57;10.15;;;;;;;17.18;38.68;101162.53;5011715;28;20029;-62
2022/03/13 11:10:30;;;;;;;13.15;9.80;;;;;;;17.22;39.18;101155.88;5008903;28;20040;-63
2022/03/13 11:12:57;;;;;;;12.65;10.35;;;;;;;17.35;39.29;101148.25;5015839;28;20030;-62